createdAt,value
2023-07-07T00:00:02.834Z,1015.4
2023-07-07T00:15:02.325Z,1015.5
2023-07-07T00:30:02.687Z,1015.6
2023-07-07T00:45:03.347Z,1015.5
2023-07-07T01:00:02.608Z,1015.5
2023-07-07T01:15:03.067Z,1015.5
2023-07-07T01:30:02.476Z,1015.4
2023-07-07T01:45:02.879Z,1015.4
2023-07-07T02:00:02.347Z,1015.3
2023-07-07T02:15:02.755Z,1015.2
2023-07-07T02:30:02.370Z,1015.4
2023-07-07T02:45:02.613Z,1015.3
2023-07-07T03:00:03.063Z,1015.4
2023-07-07T03:15:02.496Z,1015.5
2023-07-07T03:30:02.946Z,1015.6
2023-07-07T03:45:02.376Z,1015.7
2023-07-07T04:00:02.842Z,1015.9
2023-07-07T04:15:02.362Z,1016.0
2023-07-07T04:30:02.705Z,1015.9
2023-07-07T04:45:03.374Z,1016.1
2023-07-07T05:00:02.613Z,1016.2
2023-07-07T05:15:03.062Z,1016.2
2023-07-07T05:30:02.455Z,1016.2
2023-07-07T05:45:02.901Z,1016.2
2023-07-07T06:00:02.385Z,1016.1
2023-07-07T06:15:02.819Z,1016.3
2023-07-07T06:30:02.403Z,1016.3
2023-07-07T06:45:02.674Z,1016.3
2023-07-07T07:00:03.110Z,1016.4
2023-07-07T07:15:02.567Z,1016.6
2023-07-07T07:30:03.000Z,1016.5
2023-07-07T07:45:02.451Z,1016.4
2023-07-07T08:00:02.904Z,1016.5
2023-07-07T08:15:02.428Z,1016.6
2023-07-07T08:30:02.783Z,1016.6
2023-07-07T08:45:03.404Z,1016.7
2023-07-07T09:00:02.648Z,1016.7
2023-07-07T09:15:03.105Z,1016.9
2023-07-07T09:30:02.558Z,1016.8
2023-07-07T09:45:03.000Z,1016.8
2023-07-07T10:00:02.432Z,1016.7
2023-07-07T10:15:02.880Z,1016.8
2023-07-07T10:30:02.449Z,1016.6
2023-07-07T10:45:02.788Z,1016.5
2023-07-07T11:00:02.365Z,1016.6
2023-07-07T11:15:02.660Z,1016.5
2023-07-07T11:30:03.067Z,1016.4
2023-07-07T11:45:02.527Z,1016.4
2023-07-07T12:00:02.952Z,1016.2
2023-07-07T12:15:04.055Z,1016.2
2023-07-07T12:30:02.860Z,1016.0
2023-07-07T12:45:02.475Z,1016.0
2023-07-07T13:00:02.734Z,1015.9
2023-07-07T13:15:03.199Z,1015.8
2023-07-07T13:30:02.648Z,1015.8
2023-07-07T13:45:03.028Z,1015.9
2023-07-07T14:00:02.523Z,1015.7
2023-07-07T14:15:02.916Z,1015.7
2023-07-07T14:30:02.466Z,1015.6
2023-07-07T14:45:02.762Z,1015.5
2023-07-07T15:00:03.251Z,1015.4
2023-07-07T15:15:02.652Z,1015.1
2023-07-07T15:30:03.138Z,1015.3
2023-07-07T15:45:02.534Z,1015.2
2023-07-07T16:00:02.977Z,1015.0
2023-07-07T16:15:02.510Z,1014.9
2023-07-07T16:30:02.893Z,1014.9
2023-07-07T16:45:02.506Z,1014.7
2023-07-07T17:00:02.750Z,1014.7
2023-07-07T17:15:03.209Z,1014.6
2023-07-07T17:30:02.613Z,1014.7
2023-07-07T17:45:03.066Z,1014.7
2023-07-07T18:00:02.506Z,1014.7
2023-07-07T18:15:02.942Z,1014.7
2023-07-07T18:45:02.838Z,1014.6
2023-07-07T19:00:02.266Z,1014.6
2023-07-07T19:15:02.742Z,1014.6
2023-07-07T19:30:03.173Z,1014.7
2023-07-07T19:45:02.608Z,1014.7
2023-07-07T20:00:03.033Z,1014.8
2023-07-07T20:15:02.542Z,1014.8
2023-07-07T20:30:02.949Z,1014.9
2023-07-07T20:45:02.562Z,1015.0
2023-07-07T21:00:02.780Z,1015.0
2023-07-07T21:15:03.235Z,1015.0
2023-07-07T21:30:02.681Z,1015.1
2023-07-07T21:45:03.095Z,1015.1
2023-07-07T22:00:02.561Z,1014.8
2023-07-07T22:15:02.060Z,1015.1
2023-07-07T22:30:02.557Z,1015.1
2023-07-07T22:45:02.838Z,1015.0
2023-07-07T23:00:02.277Z,1015.0
2023-07-07T23:15:02.718Z,1015.0
2023-07-07T23:30:03.328Z,1015.0
2023-07-07T23:45:02.589Z,1015.1
